sensor_id;sensor_type;location;lat;lon;timestamp;P1;durP1;ratioP1;P2;durP2;ratioP2
28724;SDS011;43472;48.980;9.646;2023-08-24T00:05:03;11.40;;;5.72;;
28724;SDS011;43472;48.980;9.646;2023-08-24T00:10:07;8.68;;;6.00;;
28724;SDS011;43472;48.980;9.646;2023-08-24T00:15:09;7.72;;;6.15;;
28724;SDS011;43472;48.980;9.646;2023-08-24T00:20:11;10.30;;;6.97;;
28724;SDS011;43472;48.980;9.646;2023-08-24T00:25:14;12.45;;;6.88;;
28724;SDS011;43472;48.980;9.646;2023-08-24T00:30:16;11.27;;;7.07;;
28724;SDS011;43472;48.980;9.646;2023-08-24T00:35:18;11.23;;;7.57;;
28724;SDS011;43472;48.980;9.646;2023-08-24T00:40:20;9.52;;;7.43;;
28724;SDS011;43472;48.980;9.646;2023-08-24T00:45:26;12.27;;;6.95;;
28724;SDS011;43472;48.980;9.646;2023-08-24T00:50:29;11.27;;;6.22;;
28724;SDS011;43472;48.980;9.646;2023-08-24T00:55:31;8.90;;;6.45;;
28724;SDS011;43472;48.980;9.646;2023-08-24T01:00:33;11.32;;;7.80;;
28724;SDS011;43472;48.980;9.646;2023-08-24T01:05:35;16.35;;;7.15;;
28724;SDS011;43472;48.980;9.646;2023-08-24T01:16:08;12.82;;;6.47;;
28724;SDS011;43472;48.980;9.646;2023-08-24T01:21:15;9.73;;;5.70;;
28724;SDS011;43472;48.980;9.646;2023-08-24T01:26:19;9.90;;;5.75;;
28724;SDS011;43472;48.980;9.646;2023-08-24T01:31:22;12.95;;;6.50;;
28724;SDS011;43472;48.980;9.646;2023-08-24T01:36:26;8.70;;;6.15;;
28724;SDS011;43472;48.980;9.646;2023-08-24T01:41:30;18.75;;;6.72;;
28724;SDS011;43472;48.980;9.646;2023-08-24T01:46:44;10.65;;;7.50;;
28724;SDS011;43472;48.980;9.646;2023-08-24T01:51:49;15.32;;;7.60;;
28724;SDS011;43472;48.980;9.646;2023-08-24T01:56:52;13.55;;;7.43;;
28724;SDS011;43472;48.980;9.646;2023-08-24T02:01:57;9.05;;;6.75;;
28724;SDS011;43472;48.980;9.646;2023-08-24T02:06:59;8.57;;;6.00;;
28724;SDS011;43472;48.980;9.646;2023-08-24T02:12:01;14.02;;;7.47;;
28724;SDS011;43472;48.980;9.646;2023-08-24T02:17:04;12.40;;;7.53;;
28724;SDS011;43472;48.980;9.646;2023-08-24T02:22:05;13.60;;;7.50;;
28724;SDS011;43472;48.980;9.646;2023-08-24T02:27:09;15.13;;;7.55;;
28724;SDS011;43472;48.980;9.646;2023-08-24T02:32:11;9.95;;;7.38;;
28724;SDS011;43472;48.980;9.646;2023-08-24T02:37:14;9.32;;;7.70;;
28724;SDS011;43472;48.980;9.646;2023-08-24T02:42:17;11.80;;;9.45;;
28724;SDS011;43472;48.980;9.646;2023-08-24T02:47:21;10.60;;;8.43;;
28724;SDS011;43472;48.980;9.646;2023-08-24T02:52:24;9.43;;;7.07;;
28724;SDS011;43472;48.980;9.646;2023-08-24T02:57:28;8.93;;;5.97;;
28724;SDS011;43472;48.980;9.646;2023-08-24T03:02:30;11.45;;;7.22;;
28724;SDS011;43472;48.980;9.646;2023-08-24T03:07:33;15.77;;;8.30;;
28724;SDS011;43472;48.980;9.646;2023-08-24T03:12:36;12.77;;;8.43;;
28724;SDS011;43472;48.980;9.646;2023-08-24T03:17:38;10.02;;;8.02;;
28724;SDS011;43472;48.980;9.646;2023-08-24T03:22:41;11.05;;;7.68;;
28724;SDS011;43472;48.980;9.646;2023-08-24T03:27:43;12.23;;;8.80;;
28724;SDS011;43472;48.980;9.646;2023-08-24T03:32:46;11.65;;;9.15;;
28724;SDS011;43472;48.980;9.646;2023-08-24T03:37:48;19.65;;;11.55;;
28724;SDS011;43472;48.980;9.646;2023-08-24T03:42:50;15.43;;;8.73;;
28724;SDS011;43472;48.980;9.646;2023-08-24T03:47:52;10.23;;;8.68;;
28724;SDS011;43472;48.980;9.646;2023-08-24T03:52:54;14.32;;;11.05;;
28724;SDS011;43472;48.980;9.646;2023-08-24T03:57:56;21.83;;;12.82;;
28724;SDS011;43472;48.980;9.646;2023-08-24T04:02:59;12.32;;;9.85;;
28724;SDS011;43472;48.980;9.646;2023-08-24T04:08:01;13.23;;;10.85;;
28724;SDS011;43472;48.980;9.646;2023-08-24T04:13:03;16.98;;;10.50;;
28724;SDS011;43472;48.980;9.646;2023-08-24T04:18:06;14.00;;;8.85;;
28724;SDS011;43472;48.980;9.646;2023-08-24T04:23:08;11.38;;;7.55;;
28724;SDS011;43472;48.980;9.646;2023-08-24T04:28:12;13.43;;;8.95;;
28724;SDS011;43472;48.980;9.646;2023-08-24T04:33:15;15.60;;;9.50;;
28724;SDS011;43472;48.980;9.646;2023-08-24T04:38:17;11.73;;;8.75;;
28724;SDS011;43472;48.980;9.646;2023-08-24T04:43:19;13.32;;;8.52;;
28724;SDS011;43472;48.980;9.646;2023-08-24T04:48:23;14.88;;;8.70;;
28724;SDS011;43472;48.980;9.646;2023-08-24T04:53:26;13.38;;;9.65;;
28724;SDS011;43472;48.980;9.646;2023-08-24T04:58:28;11.77;;;8.65;;
28724;SDS011;43472;48.980;9.646;2023-08-24T05:03:31;13.57;;;8.90;;
28724;SDS011;43472;48.980;9.646;2023-08-24T05:08:33;12.13;;;8.00;;
28724;SDS011;43472;48.980;9.646;2023-08-24T05:13:37;17.27;;;8.45;;
28724;SDS011;43472;48.980;9.646;2023-08-24T05:18:40;12.68;;;9.18;;
28724;SDS011;43472;48.980;9.646;2023-08-24T05:23:42;17.40;;;8.85;;
28724;SDS011;43472;48.980;9.646;2023-08-24T05:28:44;15.10;;;8.65;;
28724;SDS011;43472;48.980;9.646;2023-08-24T05:33:47;11.80;;;8.30;;
28724;SDS011;43472;48.980;9.646;2023-08-24T05:38:49;13.82;;;9.32;;
28724;SDS011;43472;48.980;9.646;2023-08-24T05:44:06;16.52;;;11.70;;
28724;SDS011;43472;48.980;9.646;2023-08-24T05:49:08;15.88;;;10.60;;
28724;SDS011;43472;48.980;9.646;2023-08-24T05:54:10;16.15;;;8.52;;
28724;SDS011;43472;48.980;9.646;2023-08-24T05:59:13;12.70;;;7.18;;
28724;SDS011;43472;48.980;9.646;2023-08-24T06:04:15;12.68;;;8.50;;
28724;SDS011;43472;48.980;9.646;2023-08-24T06:09:17;13.48;;;8.65;;
28724;SDS011;43472;48.980;9.646;2023-08-24T06:14:19;9.68;;;7.22;;
28724;SDS011;43472;48.980;9.646;2023-08-24T06:19:21;15.82;;;5.70;;
28724;SDS011;43472;48.980;9.646;2023-08-24T06:24:23;8.57;;;4.90;;
28724;SDS011;43472;48.980;9.646;2023-08-24T06:29:27;11.27;;;4.15;;
28724;SDS011;43472;48.980;9.646;2023-08-24T06:34:31;7.55;;;4.25;;
28724;SDS011;43472;48.980;9.646;2023-08-24T06:39:33;17.25;;;7.18;;
28724;SDS011;43472;48.980;9.646;2023-08-24T06:44:42;9.77;;;6.57;;
28724;SDS011;43472;48.980;9.646;2023-08-24T06:49:44;12.13;;;6.78;;
28724;SDS011;43472;48.980;9.646;2023-08-24T06:54:46;9.35;;;6.93;;
28724;SDS011;43472;48.980;9.646;2023-08-24T06:59:50;7.72;;;5.85;;
28724;SDS011;43472;48.980;9.646;2023-08-24T07:04:52;8.45;;;5.70;;
28724;SDS011;43472;48.980;9.646;2023-08-24T07:09:55;9.85;;;5.72;;
28724;SDS011;43472;48.980;9.646;2023-08-24T07:14:58;11.65;;;6.07;;
28724;SDS011;43472;48.980;9.646;2023-08-24T07:20:00;9.13;;;6.45;;
28724;SDS011;43472;48.980;9.646;2023-08-24T07:25:03;8.50;;;6.30;;
28724;SDS011;43472;48.980;9.646;2023-08-24T07:30:07;13.07;;;6.15;;
28724;SDS011;43472;48.980;9.646;2023-08-24T07:35:30;8.98;;;4.55;;
28724;SDS011;43472;48.980;9.646;2023-08-24T07:40:33;12.38;;;5.25;;
28724;SDS011;43472;48.980;9.646;2023-08-24T07:45:37;10.07;;;4.53;;
28724;SDS011;43472;48.980;9.646;2023-08-24T07:50:42;10.45;;;5.20;;
28724;SDS011;43472;48.980;9.646;2023-08-24T07:55:44;31.50;;;5.97;;
28724;SDS011;43472;48.980;9.646;2023-08-24T08:00:49;12.00;;;4.80;;
28724;SDS011;43472;48.980;9.646;2023-08-24T08:05:52;7.43;;;4.57;;
28724;SDS011;43472;48.980;9.646;2023-08-24T08:10:59;7.60;;;4.22;;
28724;SDS011;43472;48.980;9.646;2023-08-24T08:16:03;10.60;;;4.35;;
28724;SDS011;43472;48.980;9.646;2023-08-24T08:21:10;7.00;;;4.35;;
28724;SDS011;43472;48.980;9.646;2023-08-24T08:26:15;10.60;;;3.67;;
28724;SDS011;43472;48.980;9.646;2023-08-24T08:31:18;7.15;;;4.18;;
28724;SDS011;43472;48.980;9.646;2023-08-24T08:36:22;6.50;;;4.60;;
28724;SDS011;43472;48.980;9.646;2023-08-24T08:41:25;11.35;;;4.00;;
28724;SDS011;43472;48.980;9.646;2023-08-24T08:46:34;7.93;;;3.13;;
28724;SDS011;43472;48.980;9.646;2023-08-24T08:51:36;5.07;;;3.47;;
28724;SDS011;43472;48.980;9.646;2023-08-24T08:56:39;9.13;;;2.97;;
28724;SDS011;43472;48.980;9.646;2023-08-24T09:01:41;8.05;;;3.33;;
28724;SDS011;43472;48.980;9.646;2023-08-24T09:06:46;5.80;;;3.55;;
28724;SDS011;43472;48.980;9.646;2023-08-24T09:11:49;5.90;;;3.20;;
28724;SDS011;43472;48.980;9.646;2023-08-24T09:16:51;4.53;;;3.50;;
28724;SDS011;43472;48.980;9.646;2023-08-24T09:21:56;6.43;;;3.08;;
28724;SDS011;43472;48.980;9.646;2023-08-24T09:26:59;7.50;;;3.10;;
28724;SDS011;43472;48.980;9.646;2023-08-24T09:32:21;5.90;;;3.33;;
28724;SDS011;43472;48.980;9.646;2023-08-24T09:37:25;10.32;;;3.60;;
28724;SDS011;43472;48.980;9.646;2023-08-24T09:42:27;5.32;;;3.53;;
28724;SDS011;43472;48.980;9.646;2023-08-24T09:47:30;7.82;;;3.70;;
28724;SDS011;43472;48.980;9.646;2023-08-24T09:52:32;5.95;;;3.20;;
28724;SDS011;43472;48.980;9.646;2023-08-24T09:57:38;3.55;;;3.22;;
28724;SDS011;43472;48.980;9.646;2023-08-24T10:02:52;4.63;;;3.38;;
28724;SDS011;43472;48.980;9.646;2023-08-24T10:07:56;5.65;;;3.00;;
28724;SDS011;43472;48.980;9.646;2023-08-24T10:13:00;6.85;;;3.42;;
28724;SDS011;43472;48.980;9.646;2023-08-24T10:18:10;6.20;;;3.35;;
28724;SDS011;43472;48.980;9.646;2023-08-24T10:23:14;5.78;;;3.20;;
28724;SDS011;43472;48.980;9.646;2023-08-24T10:28:17;8.55;;;3.38;;
28724;SDS011;43472;48.980;9.646;2023-08-24T10:33:21;4.75;;;3.20;;
28724;SDS011;43472;48.980;9.646;2023-08-24T10:38:27;3.97;;;3.58;;
28724;SDS011;43472;48.980;9.646;2023-08-24T10:43:36;6.13;;;3.42;;
28724;SDS011;43472;48.980;9.646;2023-08-24T10:58:48;4.97;;;3.35;;
28724;SDS011;43472;48.980;9.646;2023-08-24T11:04:12;6.85;;;4.28;;
28724;SDS011;43472;48.980;9.646;2023-08-24T11:09:15;5.22;;;3.05;;
28724;SDS011;43472;48.980;9.646;2023-08-24T11:14:21;7.55;;;3.90;;
28724;SDS011;43472;48.980;9.646;2023-08-24T11:19:27;5.07;;;3.80;;
28724;SDS011;43472;48.980;9.646;2023-08-24T11:24:29;5.25;;;3.60;;
28724;SDS011;43472;48.980;9.646;2023-08-24T11:29:35;6.45;;;3.22;;
28724;SDS011;43472;48.980;9.646;2023-08-24T11:34:38;4.88;;;3.72;;
28724;SDS011;43472;48.980;9.646;2023-08-24T11:39:45;7.53;;;3.78;;
28724;SDS011;43472;48.980;9.646;2023-08-24T11:44:50;6.32;;;3.42;;
28724;SDS011;43472;48.980;9.646;2023-08-24T11:49:53;4.70;;;3.33;;
28724;SDS011;43472;48.980;9.646;2023-08-24T11:54:58;4.32;;;3.42;;
28724;SDS011;43472;48.980;9.646;2023-08-24T12:00:00;6.72;;;3.55;;
28724;SDS011;43472;48.980;9.646;2023-08-24T12:05:05;8.93;;;3.97;;
28724;SDS011;43472;48.980;9.646;2023-08-24T12:10:08;4.95;;;3.78;;
28724;SDS011;43472;48.980;9.646;2023-08-24T12:15:19;6.35;;;3.78;;
28724;SDS011;43472;48.980;9.646;2023-08-24T12:20:22;8.95;;;4.13;;
28724;SDS011;43472;48.980;9.646;2023-08-24T12:25:24;4.68;;;3.00;;
28724;SDS011;43472;48.980;9.646;2023-08-24T12:30:26;5.80;;;3.47;;
28724;SDS011;43472;48.980;9.646;2023-08-24T12:35:28;6.53;;;3.70;;
28724;SDS011;43472;48.980;9.646;2023-08-24T12:40:30;11.60;;;4.60;;
28724;SDS011;43472;48.980;9.646;2023-08-24T12:45:32;5.40;;;3.95;;
28724;SDS011;43472;48.980;9.646;2023-08-24T12:50:35;7.18;;;3.75;;
28724;SDS011;43472;48.980;9.646;2023-08-24T12:55:39;8.73;;;3.75;;
28724;SDS011;43472;48.980;9.646;2023-08-24T13:00:42;8.07;;;4.32;;
28724;SDS011;43472;48.980;9.646;2023-08-24T13:05:44;6.40;;;4.20;;
28724;SDS011;43472;48.980;9.646;2023-08-24T13:10:46;6.15;;;3.42;;
28724;SDS011;43472;48.980;9.646;2023-08-24T13:15:51;8.07;;;4.47;;
28724;SDS011;43472;48.980;9.646;2023-08-24T13:20:55;6.28;;;3.67;;
28724;SDS011;43472;48.980;9.646;2023-08-24T13:26:00;5.95;;;3.83;;
28724;SDS011;43472;48.980;9.646;2023-08-24T13:31:02;6.28;;;3.75;;
28724;SDS011;43472;48.980;9.646;2023-08-24T13:36:05;7.10;;;4.00;;
28724;SDS011;43472;48.980;9.646;2023-08-24T13:41:07;7.68;;;4.07;;
28724;SDS011;43472;48.980;9.646;2023-08-24T13:46:09;5.47;;;4.25;;
28724;SDS011;43472;48.980;9.646;2023-08-24T13:51:14;9.45;;;3.78;;
28724;SDS011;43472;48.980;9.646;2023-08-24T13:56:19;5.90;;;3.78;;
28724;SDS011;43472;48.980;9.646;2023-08-24T14:01:22;5.13;;;3.80;;
28724;SDS011;43472;48.980;9.646;2023-08-24T14:06:29;5.78;;;4.00;;
28724;SDS011;43472;48.980;9.646;2023-08-24T14:11:32;6.53;;;4.03;;
28724;SDS011;43472;48.980;9.646;2023-08-24T14:16:35;7.82;;;3.78;;
28724;SDS011;43472;48.980;9.646;2023-08-24T14:21:37;4.85;;;3.75;;
28724;SDS011;43472;48.980;9.646;2023-08-24T14:26:45;5.07;;;3.53;;
28724;SDS011;43472;48.980;9.646;2023-08-24T14:31:47;5.50;;;3.20;;
28724;SDS011;43472;48.980;9.646;2023-08-24T14:36:50;4.75;;;3.67;;
28724;SDS011;43472;48.980;9.646;2023-08-24T14:41:52;4.55;;;3.20;;
28724;SDS011;43472;48.980;9.646;2023-08-24T14:46:54;7.00;;;3.60;;
28724;SDS011;43472;48.980;9.646;2023-08-24T14:51:56;5.85;;;3.95;;
28724;SDS011;43472;48.980;9.646;2023-08-24T14:56:59;3.72;;;3.42;;
28724;SDS011;43472;48.980;9.646;2023-08-24T15:02:02;8.13;;;4.47;;
28724;SDS011;43472;48.980;9.646;2023-08-24T15:07:04;5.13;;;3.25;;
28724;SDS011;43472;48.980;9.646;2023-08-24T15:12:05;8.88;;;4.07;;
28724;SDS011;43472;48.980;9.646;2023-08-24T15:17:08;14.13;;;5.25;;
28724;SDS011;43472;48.980;9.646;2023-08-24T15:22:10;4.47;;;3.97;;
28724;SDS011;43472;48.980;9.646;2023-08-24T15:27:12;5.78;;;4.40;;
28724;SDS011;43472;48.980;9.646;2023-08-24T15:32:14;12.02;;;5.05;;
28724;SDS011;43472;48.980;9.646;2023-08-24T15:37:16;9.30;;;2.42;;
28724;SDS011;43472;48.980;9.646;2023-08-24T15:42:18;17.77;;;4.32;;
28724;SDS011;43472;48.980;9.646;2023-08-24T15:47:21;14.95;;;4.50;;
28724;SDS011;43472;48.980;9.646;2023-08-24T15:52:23;12.98;;;3.00;;
28724;SDS011;43472;48.980;9.646;2023-08-24T15:57:27;8.35;;;3.30;;
28724;SDS011;43472;48.980;9.646;2023-08-24T16:02:29;4.65;;;2.10;;
28724;SDS011;43472;48.980;9.646;2023-08-24T16:07:32;6.60;;;2.08;;
28724;SDS011;43472;48.980;9.646;2023-08-24T16:12:34;7.40;;;2.25;;
28724;SDS011;43472;48.980;9.646;2023-08-24T16:17:36;8.32;;;2.10;;
28724;SDS011;43472;48.980;9.646;2023-08-24T16:22:39;5.60;;;2.00;;
28724;SDS011;43472;48.980;9.646;2023-08-24T16:27:41;6.30;;;2.47;;
28724;SDS011;43472;48.980;9.646;2023-08-24T16:32:43;7.90;;;2.70;;
28724;SDS011;43472;48.980;9.646;2023-08-24T16:37:45;5.22;;;2.85;;
28724;SDS011;43472;48.980;9.646;2023-08-24T16:42:47;11.52;;;3.55;;
28724;SDS011;43472;48.980;9.646;2023-08-24T16:47:49;7.72;;;2.85;;
28724;SDS011;43472;48.980;9.646;2023-08-24T16:52:54;4.38;;;2.28;;
28724;SDS011;43472;48.980;9.646;2023-08-24T16:57:55;7.50;;;2.22;;
28724;SDS011;43472;48.980;9.646;2023-08-24T17:03:00;7.93;;;2.92;;
28724;SDS011;43472;48.980;9.646;2023-08-24T17:08:04;6.32;;;2.60;;
28724;SDS011;43472;48.980;9.646;2023-08-24T17:13:10;6.53;;;2.47;;
28724;SDS011;43472;48.980;9.646;2023-08-24T17:18:11;12.05;;;3.33;;
28724;SDS011;43472;48.980;9.646;2023-08-24T17:23:13;9.13;;;3.05;;
28724;SDS011;43472;48.980;9.646;2023-08-24T17:28:15;3.60;;;2.78;;
28724;SDS011;43472;48.980;9.646;2023-08-24T17:33:18;6.78;;;3.03;;
28724;SDS011;43472;48.980;9.646;2023-08-24T17:38:22;4.75;;;3.25;;
28724;SDS011;43472;48.980;9.646;2023-08-24T17:43:25;8.60;;;3.28;;
28724;SDS011;43472;48.980;9.646;2023-08-24T17:48:27;5.55;;;2.45;;
28724;SDS011;43472;48.980;9.646;2023-08-24T17:53:29;5.35;;;2.80;;
28724;SDS011;43472;48.980;9.646;2023-08-24T17:58:32;5.95;;;3.72;;
28724;SDS011;43472;48.980;9.646;2023-08-24T18:03:34;6.75;;;3.00;;
28724;SDS011;43472;48.980;9.646;2023-08-24T18:08:36;11.55;;;4.10;;
28724;SDS011;43472;48.980;9.646;2023-08-24T18:13:51;7.20;;;3.47;;
28724;SDS011;43472;48.980;9.646;2023-08-24T18:18:55;4.90;;;3.05;;
28724;SDS011;43472;48.980;9.646;2023-08-24T18:23:57;8.10;;;4.20;;
28724;SDS011;43472;48.980;9.646;2023-08-24T18:28:59;14.52;;;4.47;;
28724;SDS011;43472;48.980;9.646;2023-08-24T18:34:02;13.07;;;4.38;;
28724;SDS011;43472;48.980;9.646;2023-08-24T18:39:04;18.60;;;4.70;;
28724;SDS011;43472;48.980;9.646;2023-08-24T18:44:06;5.93;;;3.70;;
28724;SDS011;43472;48.980;9.646;2023-08-24T18:49:08;9.38;;;3.88;;
28724;SDS011;43472;48.980;9.646;2023-08-24T18:54:11;13.30;;;4.70;;
28724;SDS011;43472;48.980;9.646;2023-08-24T18:59:15;11.52;;;4.63;;
28724;SDS011;43472;48.980;9.646;2023-08-24T19:04:17;8.40;;;4.95;;
28724;SDS011;43472;48.980;9.646;2023-08-24T19:09:19;9.40;;;5.32;;
28724;SDS011;43472;48.980;9.646;2023-08-24T19:14:22;20.95;;;5.25;;
28724;SDS011;43472;48.980;9.646;2023-08-24T19:19:24;9.13;;;4.97;;
28724;SDS011;43472;48.980;9.646;2023-08-24T19:24:26;7.03;;;4.72;;
28724;SDS011;43472;48.980;9.646;2023-08-24T19:29:28;16.83;;;5.78;;
28724;SDS011;43472;48.980;9.646;2023-08-24T19:34:31;25.80;;;7.85;;
28724;SDS011;43472;48.980;9.646;2023-08-24T19:39:33;14.88;;;10.55;;
28724;SDS011;43472;48.980;9.646;2023-08-24T19:44:35;10.32;;;4.45;;
28724;SDS011;43472;48.980;9.646;2023-08-24T19:49:40;6.28;;;2.90;;
28724;SDS011;43472;48.980;9.646;2023-08-24T19:54:42;5.70;;;2.00;;
28724;SDS011;43472;48.980;9.646;2023-08-24T19:59:43;5.93;;;2.00;;
28724;SDS011;43472;48.980;9.646;2023-08-24T20:04:45;6.78;;;2.22;;
28724;SDS011;43472;48.980;9.646;2023-08-24T20:09:48;7.15;;;2.22;;
28724;SDS011;43472;48.980;9.646;2023-08-24T20:14:50;7.68;;;2.20;;
28724;SDS011;43472;48.980;9.646;2023-08-24T20:19:55;4.90;;;2.00;;
28724;SDS011;43472;48.980;9.646;2023-08-24T20:24:59;5.30;;;2.90;;
28724;SDS011;43472;48.980;9.646;2023-08-24T20:30:01;10.93;;;4.07;;
28724;SDS011;43472;48.980;9.646;2023-08-24T20:35:05;10.48;;;3.90;;
28724;SDS011;43472;48.980;9.646;2023-08-24T20:40:07;8.82;;;3.47;;
28724;SDS011;43472;48.980;9.646;2023-08-24T20:45:10;6.10;;;4.57;;
28724;SDS011;43472;48.980;9.646;2023-08-24T20:50:12;7.68;;;4.28;;
28724;SDS011;43472;48.980;9.646;2023-08-24T20:55:14;7.13;;;3.85;;
28724;SDS011;43472;48.980;9.646;2023-08-24T21:00:16;8.48;;;3.90;;
28724;SDS011;43472;48.980;9.646;2023-08-24T21:05:19;6.65;;;3.10;;
28724;SDS011;43472;48.980;9.646;2023-08-24T21:10:21;6.38;;;3.50;;
28724;SDS011;43472;48.980;9.646;2023-08-24T21:15:23;3.83;;;2.58;;
28724;SDS011;43472;48.980;9.646;2023-08-24T21:20:25;4.80;;;2.10;;
28724;SDS011;43472;48.980;9.646;2023-08-24T21:25:27;5.32;;;2.38;;
28724;SDS011;43472;48.980;9.646;2023-08-24T21:30:30;2.20;;;1.60;;
28724;SDS011;43472;48.980;9.646;2023-08-24T21:35:35;4.57;;;1.65;;
28724;SDS011;43472;48.980;9.646;2023-08-24T21:40:40;2.65;;;1.35;;
28724;SDS011;43472;48.980;9.646;2023-08-24T21:45:42;5.28;;;1.65;;
28724;SDS011;43472;48.980;9.646;2023-08-24T21:50:44;1.67;;;1.20;;
28724;SDS011;43472;48.980;9.646;2023-08-24T21:55:50;3.72;;;0.90;;
28724;SDS011;43472;48.980;9.646;2023-08-24T22:00:59;4.47;;;1.05;;
28724;SDS011;43472;48.980;9.646;2023-08-24T22:06:06;6.07;;;1.00;;
28724;SDS011;43472;48.980;9.646;2023-08-24T22:11:08;1.45;;;1.10;;
28724;SDS011;43472;48.980;9.646;2023-08-24T22:16:10;1.67;;;0.75;;
28724;SDS011;43472;48.980;9.646;2023-08-24T22:21:12;2.65;;;1.10;;
28724;SDS011;43472;48.980;9.646;2023-08-24T22:26:14;6.28;;;0.90;;
28724;SDS011;43472;48.980;9.646;2023-08-24T22:31:18;2.72;;;1.08;;
28724;SDS011;43472;48.980;9.646;2023-08-24T22:36:21;3.45;;;0.90;;
28724;SDS011;43472;48.980;9.646;2023-08-24T22:41:23;2.20;;;0.70;;
28724;SDS011;43472;48.980;9.646;2023-08-24T22:46:24;0.55;;;0.55;;
28724;SDS011;43472;48.980;9.646;2023-08-24T22:51:27;3.22;;;1.25;;
28724;SDS011;43472;48.980;9.646;2023-08-24T22:56:29;5.10;;;1.20;;
28724;SDS011;43472;48.980;9.646;2023-08-24T23:01:33;1.80;;;0.73;;
28724;SDS011;43472;48.980;9.646;2023-08-24T23:07:22;4.03;;;1.50;;
28724;SDS011;43472;48.980;9.646;2023-08-24T23:11:59;5.25;;;1.50;;
28724;SDS011;43472;48.980;9.646;2023-08-24T23:17:03;2.47;;;0.93;;
28724;SDS011;43472;48.980;9.646;2023-08-24T23:22:06;6.13;;;1.58;;
28724;SDS011;43472;48.980;9.646;2023-08-24T23:27:07;5.90;;;1.10;;
28724;SDS011;43472;48.980;9.646;2023-08-24T23:32:11;5.18;;;1.25;;
28724;SDS011;43472;48.980;9.646;2023-08-24T23:37:17;5.32;;;1.02;;
28724;SDS011;43472;48.980;9.646;2023-08-24T23:42:19;3.90;;;1.33;;
28724;SDS011;43472;48.980;9.646;2023-08-24T23:47:23;5.03;;;1.73;;
28724;SDS011;43472;48.980;9.646;2023-08-24T23:52:25;2.00;;;1.48;;
28724;SDS011;43472;48.980;9.646;2023-08-24T23:57:30;4.43;;;1.85;;
